Time;durP1;ratioP1;P1;durP2;ratioP2;P2;SDS_P1;SDS_P2;PMS_P1;PMS_P2;Temp;Humidity;BMP_temperature;BMP_pressure;BME280_temperature;BME280_humidity;BME280_pressure;Samples;Min_cycle;Max_cycle;Signal;HPM_P1;HPM_P2
2021/05/19 00:01:19;;;;;;;2.47;1.50;;;;;;;;;;5014841;28;20431;-64
2021/05/19 00:03:45;;;;;;;2.20;1.30;;;;;;;;;;5014257;28;20440;-63
2021/05/19 00:06:12;;;;;;;2.00;1.50;;;;;;;;;;5015752;28;20400;-63
2021/05/19 00:08:38;;;;;;;1.77;1.33;;;;;;;;;;4996865;28;20432;-63
2021/05/19 00:11:05;;;;;;;4.60;1.43;;;;;;;;;;5003751;28;20463;-64
2021/05/19 00:13:32;;;;;;;2.20;1.27;;;;;;;;;;4998384;28;20988;-64
2021/05/19 00:15:59;;;;;;;2.53;1.27;;;;;;;;;;4995922;28;20542;-64
2021/05/19 00:18:25;;;;;;;2.40;1.27;;;;;;;;;;5011173;28;20439;-64
2021/05/19 00:20:51;;;;;;;1.77;1.20;;;;;;;;;;5015454;28;20399;-64
2021/05/19 00:23:17;;;;;;;2.40;1.20;;;;;;;;;;5014147;28;20432;-64
2021/05/19 00:25:43;;;;;;;2.07;0.97;;;;;;;;;;5015121;28;20483;-64
2021/05/19 00:28:09;;;;;;;1.80;1.27;;;;;;;;;;5014309;28;20515;-64
2021/05/19 00:30:37;;;;;;;2.30;1.50;;;;;;;;;;5014776;28;20496;-64
2021/05/19 00:33:04;;;;;;;2.90;1.30;;;;;;;;;;5013816;28;20802;-64
2021/05/19 00:35:30;;;;;;;2.30;1.10;;;;;;;;;;5012230;28;20474;-64
2021/05/19 00:37:56;;;;;;;5.03;1.40;;;;;;;;;;5013778;28;20424;-63
2021/05/19 00:40:22;;;;;;;3.67;1.70;;;;;;;;;;5013622;28;20432;-64
2021/05/19 00:42:48;;;;;;;2.67;1.40;;;;;;;;;;5014717;28;20451;-64
2021/05/19 00:45:14;;;;;;;2.50;1.60;;;;;;;;;;5012624;28;20431;-63
2021/05/19 00:47:42;;;;;;;2.90;1.60;;;;;;;;;;5014711;28;20429;-64
2021/05/19 00:50:10;;;;;;;2.33;1.20;;;;;;;;;;5006130;28;20456;-63
2021/05/19 00:52:37;;;;;;;1.80;1.10;;;;;;;;;;4994981;28;20459;-63
2021/05/19 00:55:03;;;;;;;4.23;1.50;;;;;;;;;;5001739;28;20423;-63
2021/05/19 00:57:30;;;;;;;2.87;1.53;;;;;;;;;;5014424;28;20484;-63
2021/05/19 00:59:56;;;;;;;1.80;1.00;;;;;;;;;;4995286;28;20991;-63
2021/05/19 01:02:22;;;;;;;3.10;1.40;;;;;;;;;;4994611;28;20547;-64
2021/05/19 01:04:49;;;;;;;1.90;1.40;;;;;;;;;;4998955;28;20481;-63
2021/05/19 01:09:41;;;;;;;2.43;1.10;;;;;;;;;;5013484;28;20431;-64
2021/05/19 01:12:10;;;;;;;1.50;1.00;;;;;;;;;;5012585;28;20482;-64
2021/05/19 01:14:37;;;;;;;1.77;0.97;;;;;;;;;;5010701;28;20478;-64
2021/05/19 01:17:03;;;;;;;1.70;1.10;;;;;;;;;;4994665;28;20405;-64
2021/05/19 01:19:31;;;;;;;2.37;1.07;;;;;;;;;;4994590;28;20927;-63
2021/05/19 01:21:57;;;;;;;2.27;1.27;;;;;;;;;;4993262;28;20944;-64
2021/05/19 01:24:23;;;;;;;1.80;1.30;;;;;;;;;;4994762;28;20496;-63
2021/05/19 01:26:49;;;;;;;2.13;1.20;;;;;;;;;;5014002;28;20459;-64
2021/05/19 01:29:15;;;;;;;1.40;0.90;;;;;;;;;;5013654;28;20900;-63
2021/05/19 01:31:45;;;;;;;2.03;1.30;;;;;;;;;;5013800;28;20494;-64
2021/05/19 01:34:11;;;;;;;3.00;1.20;;;;;;;;;;5005920;28;20424;-63
2021/05/19 01:36:38;;;;;;;2.70;2.30;;;;;;;;;;4995539;28;20433;-63
2021/05/19 01:39:05;;;;;;;1.77;1.23;;;;;;;;;;4995023;28;20396;-63
2021/05/19 01:41:31;;;;;;;1.33;0.87;;;;;;;;;;4994458;28;20449;-63
2021/05/19 01:43:57;;;;;;;1.80;1.30;;;;;;;;;;4994620;28;20409;-64
2021/05/19 01:46:23;;;;;;;2.30;1.20;;;;;;;;;;4994400;28;20429;-63
2021/05/19 01:48:56;;;;;;;2.47;1.23;;;;;;;;;;4994383;28;20491;-63
2021/05/19 01:51:22;;;;;;;3.00;1.20;;;;;;;;;;5004311;28;20500;-63
2021/05/19 01:53:49;;;;;;;2.33;1.20;;;;;;;;;;5014061;28;20408;-64
2021/05/19 01:56:15;;;;;;;2.23;1.40;;;;;;;;;;5013075;28;20420;-63
2021/05/19 01:58:41;;;;;;;1.40;0.87;;;;;;;;;;5013811;28;20404;-64
2021/05/19 02:01:07;;;;;;;1.50;0.80;;;;;;;;;;5012315;28;20534;-64
2021/05/19 02:03:33;;;;;;;1.70;1.10;;;;;;;;;;5012482;28;20439;-64
2021/05/19 02:05:59;;;;;;;1.60;1.00;;;;;;;;;;5012719;28;20427;-63
2021/05/19 02:08:25;;;;;;;2.70;1.17;;;;;;;;;;5004013;28;20428;-64
2021/05/19 02:10:51;;;;;;;2.83;1.03;;;;;;;;;;4999331;28;20455;-64
2021/05/19 02:13:19;;;;;;;2.10;1.30;;;;;;;;;;5013667;28;20403;-64
2021/05/19 02:15:45;;;;;;;2.67;0.97;;;;;;;;;;5007537;28;20420;-64
2021/05/19 02:18:11;;;;;;;1.60;1.17;;;;;;;;;;4993812;28;20435;-63
2021/05/19 02:20:37;;;;;;;1.80;1.20;;;;;;;;;;4996719;28;20431;-63
2021/05/19 02:23:03;;;;;;;1.97;1.40;;;;;;;;;;5013910;28;20446;-63
2021/05/19 02:25:29;;;;;;;1.73;1.10;;;;;;;;;;5014278;28;20431;-63
2021/05/19 02:27:55;;;;;;;2.70;1.33;;;;;;;;;;4997656;28;20454;-64
2021/05/19 02:30:21;;;;;;;10.57;1.77;;;;;;;;;;4998672;28;20444;-63
2021/05/19 02:32:48;;;;;;;1.97;1.60;;;;;;;;;;5017535;28;20419;-63
2021/05/19 02:35:14;;;;;;;2.43;1.33;;;;;;;;;;5016371;28;20430;-63
2021/05/19 02:37:41;;;;;;;2.33;1.00;;;;;;;;;;5017466;28;20482;-64
2021/05/19 02:40:08;;;;;;;2.73;1.43;;;;;;;;;;5016039;28;20733;-63
2021/05/19 02:42:34;;;;;;;1.50;1.10;;;;;;;;;;5014207;28;20447;-64
2021/05/19 02:45:00;;;;;;;2.53;0.97;;;;;;;;;;5017302;28;20747;-64
2021/05/19 02:47:26;;;;;;;3.30;1.20;;;;;;;;;;4998857;28;20434;-64
2021/05/19 02:49:52;;;;;;;2.70;1.93;;;;;;;;;;4997504;28;20424;-64
2021/05/19 02:52:18;;;;;;;3.60;1.30;;;;;;;;;;5013629;28;20553;-63
2021/05/19 02:54:44;;;;;;;3.53;1.37;;;;;;;;;;5016976;28;20400;-63
2021/05/19 02:57:10;;;;;;;1.80;1.43;;;;;;;;;;5000984;28;20424;-63
2021/05/19 02:59:37;;;;;;;2.13;1.30;;;;;;;;;;5016500;28;20403;-63
2021/05/19 03:02:03;;;;;;;2.23;1.47;;;;;;;;;;5001949;28;20465;-63
2021/05/19 03:04:29;;;;;;;3.07;1.50;;;;;;;;;;4997529;28;20412;-63
2021/05/19 03:06:55;;;;;;;1.90;1.40;;;;;;;;;;4997196;28;20428;-63
2021/05/19 03:09:21;;;;;;;11.63;1.60;;;;;;;;;;4997064;28;20404;-63
2021/05/19 03:11:48;;;;;;;3.60;1.70;;;;;;;;;;5012092;28;20471;-63
2021/05/19 03:14:14;;;;;;;2.20;1.50;;;;;;;;;;5016453;28;20460;-63
2021/05/19 03:16:40;;;;;;;3.50;1.50;;;;;;;;;;5014529;28;20819;-63
2021/05/19 03:19:07;;;;;;;2.97;1.40;;;;;;;;;;5016221;28;20400;-65
2021/05/19 03:21:33;;;;;;;3.70;1.33;;;;;;;;;;5015326;28;20451;-63
2021/05/19 03:23:59;;;;;;;3.53;1.40;;;;;;;;;;5016423;28;20490;-63
2021/05/19 03:26:25;;;;;;;2.17;1.40;;;;;;;;;;5015056;28;20431;-65
2021/05/19 03:28:51;;;;;;;2.33;2.00;;;;;;;;;;5016110;28;20829;-64
2021/05/19 03:31:17;;;;;;;2.60;1.40;;;;;;;;;;5008538;28;21060;-63
2021/05/19 03:33:44;;;;;;;2.33;1.40;;;;;;;;;;4996215;28;20430;-61
2021/05/19 03:36:10;;;;;;;5.37;3.10;;;;;;;;;;5001744;28;20865;-63
2021/05/19 03:38:37;;;;;;;2.10;1.50;;;;;;;;;;5016044;28;20400;-63
2021/05/19 03:41:04;;;;;;;2.00;1.30;;;;;;;;;;5010899;28;20452;-62
2021/05/19 03:43:30;;;;;;;2.43;1.50;;;;;;;;;;4996337;28;20471;-63
2021/05/19 03:45:56;;;;;;;2.17;1.50;;;;;;;;;;4999010;28;20423;-64
2021/05/19 03:48:22;;;;;;;2.87;1.67;;;;;;;;;;5015938;28;20403;-64
2021/05/19 03:50:48;;;;;;;2.10;1.50;;;;;;;;;;5012418;28;20555;-64
2021/05/19 03:53:14;;;;;;;3.27;1.70;;;;;;;;;;5014215;28;20424;-65
2021/05/19 03:55:43;;;;;;;4.70;2.17;;;;;;;;;;5013275;28;20542;-64
2021/05/19 03:58:09;;;;;;;2.40;1.93;;;;;;;;;;5015751;28;20403;-63
2021/05/19 04:00:35;;;;;;;2.67;1.93;;;;;;;;;;5014745;28;20490;-66
2021/05/19 04:03:02;;;;;;;8.90;2.17;;;;;;;;;;5015127;28;20452;-64
2021/05/19 04:05:34;;;;;;;4.27;2.30;;;;;;;;;;5015449;28;20761;-63
2021/05/19 04:08:00;;;;;;;2.80;2.07;;;;;;;;;;5014205;28;20420;-64
2021/05/19 04:10:26;;;;;;;3.87;2.67;;;;;;;;;;5015334;28;20447;-63
2021/05/19 04:12:52;;;;;;;2.77;2.30;;;;;;;;;;5014192;28;20994;-64
2021/05/19 04:15:19;;;;;;;3.90;2.27;;;;;;;;;;5015227;28;20453;-63
2021/05/19 04:17:45;;;;;;;3.70;2.10;;;;;;;;;;5013856;28;20424;-64
2021/05/19 04:20:12;;;;;;;3.20;2.33;;;;;;;;;;5015119;28;20400;-64
2021/05/19 04:22:38;;;;;;;6.63;2.30;;;;;;;;;;5011245;28;20879;-64
2021/05/19 04:25:05;;;;;;;3.10;2.10;;;;;;;;;;5015457;28;20766;-65
2021/05/19 04:27:31;;;;;;;8.67;2.20;;;;;;;;;;5013934;28;20427;-65
2021/05/19 04:29:57;;;;;;;5.13;2.90;;;;;;;;;;5014919;28;20404;-65
2021/05/19 04:32:23;;;;;;;7.33;3.30;;;;;;;;;;5013735;28;20474;-65
2021/05/19 04:34:49;;;;;;;4.17;2.37;;;;;;;;;;5014861;28;20950;-64
2021/05/19 04:37:16;;;;;;;4.30;2.67;;;;;;;;;;5014091;28;20424;-64
2021/05/19 04:39:42;;;;;;;4.30;2.70;;;;;;;;;;5014791;28;20453;-64
2021/05/19 04:42:08;;;;;;;4.57;2.90;;;;;;;;;;5012795;28;20903;-63
2021/05/19 04:44:34;;;;;;;4.60;2.93;;;;;;;;;;5014682;28;20412;-64
2021/05/19 04:47:00;;;;;;;3.27;2.70;;;;;;;;;;5013173;28;20420;-64
2021/05/19 04:49:26;;;;;;;4.10;2.30;;;;;;;;;;5014613;28;20406;-65
2021/05/19 04:51:52;;;;;;;3.40;2.93;;;;;;;;;;5009759;28;20479;-64
2021/05/19 04:54:19;;;;;;;3.57;3.07;;;;;;;;;;4995177;28;20401;-64
2021/05/19 04:56:45;;;;;;;3.23;2.77;;;;;;;;;;4997386;28;20444;-65
2021/05/19 04:59:11;;;;;;;4.63;2.90;;;;;;;;;;5014690;28;20893;-64
2021/05/19 05:01:37;;;;;;;4.03;2.73;;;;;;;;;;5013878;28;20455;-64
2021/05/19 05:04:03;;;;;;;7.00;2.87;;;;;;;;;;5014570;28;20448;-65
2021/05/19 05:06:29;;;;;;;5.27;3.00;;;;;;;;;;5013573;28;20406;-64
2021/05/19 05:08:55;;;;;;;4.13;3.13;;;;;;;;;;5014742;28;20777;-65
2021/05/19 05:11:21;;;;;;;3.57;2.70;;;;;;;;;;5013535;28;20482;-64
2021/05/19 05:13:47;;;;;;;3.77;2.33;;;;;;;;;;4995035;28;20935;-65
2021/05/19 05:16:14;;;;;;;4.10;2.93;;;;;;;;;;4995025;28;20432;-63
2021/05/19 05:18:42;;;;;;;2.33;1.93;;;;;;;;;;5013041;28;20958;-64
2021/05/19 05:21:09;;;;;;;3.07;2.50;;;;;;;;;;5014342;28;20787;-64
2021/05/19 05:23:35;;;;;;;4.10;2.20;;;;;;;;;;5013003;28;20490;-64
2021/05/19 05:26:02;;;;;;;2.83;2.10;;;;;;;;;;5014105;28;20407;-64
2021/05/19 05:28:28;;;;;;;3.10;2.30;;;;;;;;;;5013232;28;20426;-64
2021/05/19 05:30:55;;;;;;;3.37;2.30;;;;;;;;;;5014130;28;20470;-63
2021/05/19 05:33:21;;;;;;;4.40;2.30;;;;;;;;;;4999511;28;20478;-65
2021/05/19 05:35:48;;;;;;;3.43;2.50;;;;;;;;;;4994577;28;20767;-64
2021/05/19 05:38:14;;;;;;;4.30;2.80;;;;;;;;;;5011734;28;20483;-64
2021/05/19 05:40:40;;;;;;;3.70;2.67;;;;;;;;;;5013982;28;20436;-64
2021/05/19 05:43:07;;;;;;;3.83;2.60;;;;;;;;;;5013093;28;20451;-65
2021/05/19 05:45:33;;;;;;;5.37;2.87;;;;;;;;;;5012964;28;20435;-63
2021/05/19 05:47:59;;;;;;;6.03;3.27;;;;;;;;;;5012892;28;20434;-67
2021/05/19 05:50:25;;;;;;;4.37;3.43;;;;;;;;;;5014246;28;20452;-66
2021/05/19 05:52:51;;;;;;;4.20;2.93;;;;;;;;;;5012904;28;20472;-66
2021/05/19 05:55:20;;;;;;;3.70;3.07;;;;;;;;;;5013867;28;20434;-65
2021/05/19 05:57:46;;;;;;;4.33;2.70;;;;;;;;;;5011909;28;20419;-65
2021/05/19 06:00:13;;;;;;;3.70;3.20;;;;;;;;;;5013861;28;20405;-64
2021/05/19 06:02:39;;;;;;;3.93;3.00;;;;;;;;;;5013018;28;20542;-64
2021/05/19 06:05:05;;;;;;;5.77;3.37;;;;;;;;;;5013975;28;20452;-64
2021/05/19 06:07:32;;;;;;;6.50;3.80;;;;;;;;;;5013199;28;20821;-64
2021/05/19 06:09:58;;;;;;;5.00;3.60;;;;;;;;;;5013946;28;20494;-64
2021/05/19 06:12:24;;;;;;;6.07;3.87;;;;;;;;;;5011569;28;20479;-64
2021/05/19 06:14:50;;;;;;;4.30;3.40;;;;;;;;;;5013368;28;20931;-64
2021/05/19 06:17:16;;;;;;;8.13;3.93;;;;;;;;;;5012543;28;20788;-64
2021/05/19 06:19:43;;;;;;;4.50;3.73;;;;;;;;;;5013820;28;20419;-63
2021/05/19 06:22:09;;;;;;;4.17;3.50;;;;;;;;;;5012229;28;21122;-64
2021/05/19 06:24:35;;;;;;;4.40;3.20;;;;;;;;;;5012113;28;20423;-64
2021/05/19 06:27:02;;;;;;;5.80;4.43;;;;;;;;;;5012474;28;20412;-63
2021/05/19 06:29:28;;;;;;;5.73;4.13;;;;;;;;;;5013382;28;20411;-64
2021/05/19 06:31:54;;;;;;;8.80;3.90;;;;;;;;;;5012245;28;20470;-63
2021/05/19 06:34:20;;;;;;;5.10;3.60;;;;;;;;;;5011927;28;20932;-63
2021/05/19 06:36:46;;;;;;;5.93;3.70;;;;;;;;;;5009351;28;20511;-63
2021/05/19 06:39:19;;;;;;;5.53;4.50;;;;;;;;;;5013362;28;20801;-63
2021/05/19 06:41:47;;;;;;;5.07;4.40;;;;;;;;;;5012632;28;20430;-63
2021/05/19 06:44:13;;;;;;;6.80;4.40;;;;;;;;;;5014067;28;20743;-63
2021/05/19 06:46:40;;;;;;;5.80;4.40;;;;;;;;;;5013615;28;21060;-65
2021/05/19 06:49:06;;;;;;;4.70;3.80;;;;;;;;;;5013279;28;20479;-65
2021/05/19 06:51:32;;;;;;;7.27;4.77;;;;;;;;;;5013439;28;20458;-65
2021/05/19 06:53:59;;;;;;;6.20;4.67;;;;;;;;;;4995059;28;20441;-65
2021/05/19 06:56:26;;;;;;;7.37;4.33;;;;;;;;;;4993813;28;20771;-65
2021/05/19 06:58:52;;;;;;;4.90;3.90;;;;;;;;;;5009812;28;20989;-65
2021/05/19 07:01:18;;;;;;;5.80;4.30;;;;;;;;;;5011053;28;20451;-63
2021/05/19 07:03:44;;;;;;;5.40;4.53;;;;;;;;;;5007283;28;20440;-65
2021/05/19 07:06:10;;;;;;;7.13;5.33;;;;;;;;;;5006429;28;20420;-65
2021/05/19 07:08:36;;;;;;;4.83;3.80;;;;;;;;;;5009565;28;20455;-65
2021/05/19 07:11:03;;;;;;;6.50;4.53;;;;;;;;;;5014903;28;20470;-64
2021/05/19 07:13:29;;;;;;;7.13;4.73;;;;;;;;;;5009949;28;20430;-62
2021/05/19 07:15:56;;;;;;;6.23;4.20;;;;;;;;;;5010831;28;20946;-64
2021/05/19 07:18:22;;;;;;;8.70;4.90;;;;;;;;;;5013304;28;20431;-62
2021/05/19 07:20:49;;;;;;;5.93;4.40;;;;;;;;;;5013967;28;20447;-63
2021/05/19 07:23:15;;;;;;;6.13;4.70;;;;;;;;;;5010704;28;20463;-63
2021/05/19 07:25:41;;;;;;;7.03;5.23;;;;;;;;;;5011334;28;20424;-64
2021/05/19 07:28:11;;;;;;;7.00;4.83;;;;;;;;;;5015172;28;20466;-63
2021/05/19 07:30:37;;;;;;;5.07;4.47;;;;;;;;;;5016804;28;20463;-64
2021/05/19 07:33:05;;;;;;;5.17;4.37;;;;;;;;;;5015971;28;20455;-64
2021/05/19 07:35:31;;;;;;;5.00;4.40;;;;;;;;;;5014712;28;20854;-63
2021/05/19 07:37:58;;;;;;;5.20;4.10;;;;;;;;;;5014821;28;20459;-63
2021/05/19 07:40:24;;;;;;;11.03;4.70;;;;;;;;;;5016313;28;20479;-64
2021/05/19 07:42:50;;;;;;;5.30;4.10;;;;;;;;;;5013725;28;20474;-63
2021/05/19 07:45:17;;;;;;;4.97;4.20;;;;;;;;;;5014185;28;20888;-63
2021/05/19 07:47:43;;;;;;;6.60;5.90;;;;;;;;;;5012620;28;20443;-63
2021/05/19 07:50:10;;;;;;;6.83;5.00;;;;;;;;;;5012737;28;20427;-63
2021/05/19 07:52:36;;;;;;;8.03;5.80;;;;;;;;;;4999947;28;20538;-63
2021/05/19 07:55:05;;;;;;;5.37;4.43;;;;;;;;;;5000413;28;20494;-64
2021/05/19 07:58:12;;;;;;;5.47;4.90;;;;;;;;;;5013940;28;20465;-63
2021/05/19 08:03:05;;;;;;;8.43;5.30;;;;;;;;;;5014642;28;20802;-64
2021/05/19 08:05:31;;;;;;;8.27;4.97;;;;;;;;;;5009936;28;20531;-64
2021/05/19 08:07:57;;;;;;;6.83;4.83;;;;;;;;;;5007706;28;20415;-64
2021/05/19 08:10:23;;;;;;;8.33;4.80;;;;;;;;;;5013199;28;20970;-63
2021/05/19 08:12:51;;;;;;;6.57;5.17;;;;;;;;;;5015186;28;20424;-63
2021/05/19 08:15:17;;;;;;;6.00;5.33;;;;;;;;;;5011071;28;20436;-63
2021/05/19 08:17:43;;;;;;;5.40;4.90;;;;;;;;;;5009538;28;20485;-63
2021/05/19 08:20:10;;;;;;;4.93;4.43;;;;;;;;;;5008920;28;20424;-63
2021/05/19 08:22:36;;;;;;;7.20;5.50;;;;;;;;;;5011290;28;20444;-63
2021/05/19 08:25:02;;;;;;;6.00;5.40;;;;;;;;;;5005695;28;20435;-63
2021/05/19 08:27:28;;;;;;;5.80;5.10;;;;;;;;;;5002656;28;20471;-63
2021/05/19 08:29:54;;;;;;;5.00;4.20;;;;;;;;;;5004866;28;20456;-64
2021/05/19 08:32:20;;;;;;;4.70;4.20;;;;;;;;;;5005478;28;20495;-64
2021/05/19 08:34:46;;;;;;;4.83;4.10;;;;;;;;;;5004270;28;20988;-63
2021/05/19 08:37:12;;;;;;;5.87;5.10;;;;;;;;;;5004715;28;20432;-63
2021/05/19 08:39:38;;;;;;;9.27;5.93;;;;;;;;;;5003127;28;20424;-64
2021/05/19 08:42:05;;;;;;;6.73;5.20;;;;;;;;;;5004465;28;20423;-64
2021/05/19 08:44:31;;;;;;;7.90;6.40;;;;;;;;;;5000615;28;20432;-63
2021/05/19 08:46:57;;;;;;;7.33;6.00;;;;;;;;;;5006185;28;20975;-63
2021/05/19 08:49:25;;;;;;;7.53;6.70;;;;;;;;;;5006515;28;20450;-64
2021/05/19 08:51:51;;;;;;;6.77;5.70;;;;;;;;;;5006556;28;20471;-64
2021/05/19 08:54:19;;;;;;;8.37;6.37;;;;;;;;;;5003754;28;20427;-64
2021/05/19 08:56:46;;;;;;;11.73;6.67;;;;;;;;;;5001743;28;20420;-63
2021/05/19 08:59:12;;;;;;;7.33;6.53;;;;;;;;;;5003510;28;20558;-65
2021/05/19 09:01:42;;;;;;;7.47;6.17;;;;;;;;;;5002647;28;20462;-65
2021/05/19 09:04:15;;;;;;;6.50;5.37;;;;;;;;;;5005352;28;20428;-63
2021/05/19 09:06:41;;;;;;;8.30;5.97;;;;;;;;;;5004641;28;20412;-63
2021/05/19 09:09:26;;;;;;;6.80;6.10;;;;;;;;;;5003767;28;20432;-63
2021/05/19 09:11:59;;;;;;;7.63;6.33;;;;;;;;;;5000279;28;20500;-64
2021/05/19 09:14:30;;;;;;;7.57;6.17;;;;;;;;;;5004443;28;20471;-63
2021/05/19 09:17:17;;;;;;;8.87;6.20;;;;;;;;;;5004924;28;20827;-63
2021/05/19 09:19:43;;;;;;;7.73;6.10;;;;;;;;;;5006540;28;20424;-64
2021/05/19 09:22:16;;;;;;;7.03;6.20;;;;;;;;;;5004947;28;20483;-64
2021/05/19 09:24:42;;;;;;;7.80;6.50;;;;;;;;;;5005504;28;20428;-64
2021/05/19 09:27:08;;;;;;;11.50;6.87;;;;;;;;;;5007135;28;20415;-65
2021/05/19 09:29:35;;;;;;;6.30;5.70;;;;;;;;;;5011855;28;20468;-63
2021/05/19 09:32:01;;;;;;;6.70;6.03;;;;;;;;;;5013419;28;21010;-63
2021/05/19 09:34:29;;;;;;;6.30;5.33;;;;;;;;;;5009567;28;20787;-63
2021/05/19 09:37:12;;;;;;;6.73;5.33;;;;;;;;;;5014386;28;20933;-63
2021/05/19 09:39:45;;;;;;;6.90;5.87;;;;;;;;;;5008687;28;20482;-64
2021/05/19 09:42:11;;;;;;;7.17;5.10;;;;;;;;;;5007455;28;20464;-64
2021/05/19 09:44:38;;;;;;;8.27;5.77;;;;;;;;;;5008035;28;20419;-63
2021/05/19 09:47:04;;;;;;;10.20;5.23;;;;;;;;;;5012712;28;20494;-63
2021/05/19 09:49:30;;;;;;;8.80;5.47;;;;;;;;;;5011662;28;20424;-65
2021/05/19 09:51:59;;;;;;;5.23;4.30;;;;;;;;;;5009203;28;21015;-65
2021/05/19 09:54:26;;;;;;;5.80;4.50;;;;;;;;;;5010868;28;20462;-64
2021/05/19 09:57:03;;;;;;;6.60;4.20;;;;;;;;;;5013226;28;20400;-63
2021/05/19 09:59:29;;;;;;;7.20;4.97;;;;;;;;;;5002492;28;20558;-64
2021/05/19 10:01:57;;;;;;;8.93;5.60;;;;;;;;;;5015817;28;20513;-64
2021/05/19 10:04:27;;;;;;;7.53;5.70;;;;;;;;;;5010989;28;20431;-63
2021/05/19 10:06:54;;;;;;;5.33;4.60;;;;;;;;;;5013061;28;20545;-64
2021/05/19 10:09:20;;;;;;;6.90;5.10;;;;;;;;;;5012816;28;20432;-63
2021/05/19 10:11:47;;;;;;;6.33;5.30;;;;;;;;;;5014300;28;20923;-63
2021/05/19 10:14:14;;;;;;;5.50;4.73;;;;;;;;;;5009051;28;20485;-64
2021/05/19 10:16:42;;;;;;;8.33;5.00;;;;;;;;;;5013990;28;20422;-64
2021/05/19 10:19:09;;;;;;;7.10;4.87;;;;;;;;;;5012156;28;20419;-64
2021/05/19 10:21:36;;;;;;;6.50;4.77;;;;;;;;;;5017694;28;20439;-62
2021/05/19 10:26:30;;;;;;;4.57;3.83;;;;;;;;;;5011894;28;20522;-64
2021/05/19 10:28:58;;;;;;;4.90;4.20;;;;;;;;;;5012121;28;20428;-63
2021/05/19 10:31:41;;;;;;;7.43;4.63;;;;;;;;;;5011873;28;20482;-63
2021/05/19 10:34:07;;;;;;;11.50;5.30;;;;;;;;;;5013619;28;20793;-65
2021/05/19 10:36:33;;;;;;;10.63;5.93;;;;;;;;;;5013730;28;20561;-65
2021/05/19 10:39:09;;;;;;;10.20;5.20;;;;;;;;;;5010222;28;20439;-65
2021/05/19 10:41:36;;;;;;;9.30;6.60;;;;;;;;;;5009411;28;20439;-65
2021/05/19 10:44:06;;;;;;;6.37;5.70;;;;;;;;;;5013763;28;20916;-65
2021/05/19 10:46:49;;;;;;;7.30;6.40;;;;;;;;;;5013898;28;20455;-66
2021/05/19 10:49:19;;;;;;;11.57;7.47;;;;;;;;;;5016532;28;20785;-66
2021/05/19 10:51:52;;;;;;;7.80;7.00;;;;;;;;;;5014622;28;20995;-65
2021/05/19 10:57:30;;;;;;;7.70;6.80;;;;;;;;;;5008048;28;20440;-66
2021/05/19 11:00:08;;;;;;;9.17;6.20;;;;;;;;;;5017014;28;20423;-65
2021/05/19 11:02:58;;;;;;;9.17;7.17;;;;;;;;;;5017587;22;20565;-82
2021/05/19 11:05:29;;;;;;;8.30;7.00;;;;;;;;;;5003942;28;20416;-83
2021/05/19 11:08:07;;;;;;;18.43;6.70;;;;;;;;;;5000755;28;20424;-84
2021/05/19 11:10:33;;;;;;;6.77;5.90;;;;;;;;;;5000278;28;20522;-81
2021/05/19 11:12:59;;;;;;;6.70;5.80;;;;;;;;;;5002293;28;20515;-82
2021/05/19 11:18:20;;;;;;;7.10;6.00;;;;;;;;;;5000500;28;20443;-82
2021/05/19 11:20:46;;;;;;;7.90;4.97;;;;;;;;;;4997493;28;20556;-83
2021/05/19 11:23:13;;;;;;;5.80;4.80;;;;;;;;;;5002211;28;20487;-83
2021/05/19 11:25:40;;;;;;;7.60;4.40;;;;;;;;;;5001948;28;20458;-82
2021/05/19 11:28:06;;;;;;;6.23;4.83;;;;;;;;;;5001751;28;20792;-83
2021/05/19 11:30:33;;;;;;;6.53;3.90;;;;;;;;;;5001283;28;20447;-82
2021/05/19 11:33:17;;;;;;;8.50;4.20;;;;;;;;;;5005010;28;20959;-81
2021/05/19 11:35:47;;;;;;;4.30;3.90;;;;;;;;;;4998890;28;20611;-83
2021/05/19 11:38:14;;;;;;;6.63;4.67;;;;;;;;;;5002046;28;20433;-82
2021/05/19 11:40:44;;;;;;;4.53;3.83;;;;;;;;;;5006679;28;20432;-81
2021/05/19 11:43:11;;;;;;;4.13;3.30;;;;;;;;;;4999519;28;20989;-82
2021/05/19 11:45:41;;;;;;;5.23;4.33;;;;;;;;;;5001073;28;20498;-80
2021/05/19 11:48:18;;;;;;;4.60;4.10;;;;;;;;;;5001762;28;20515;-81
2021/05/19 11:50:44;;;;;;;4.37;3.30;;;;;;;;;;5004990;28;20508;-80
2021/05/19 11:53:10;;;;;;;4.20;3.03;;;;;;;;;;5006429;28;20432;-81
2021/05/19 11:55:40;;;;;;;3.80;3.23;;;;;;;;;;5003649;28;20525;-81
2021/05/19 11:58:06;;;;;;;3.77;3.00;;;;;;;;;;5008110;28;20436;-83
2021/05/19 12:00:36;;;;;;;4.03;3.60;;;;;;;;;;5007336;28;20401;-82
2021/05/19 12:03:02;;;;;;;3.10;2.80;;;;;;;;;;5008529;28;20459;-82
2021/05/19 12:05:39;;;;;;;8.90;3.20;;;;;;;;;;5008288;28;20532;-82
2021/05/19 12:08:05;;;;;;;5.80;3.70;;;;;;;;;;5006534;28;20438;-80
2021/05/19 12:10:31;;;;;;;3.77;2.70;;;;;;;;;;5008104;28;20535;-79
2021/05/19 12:12:59;;;;;;;4.00;3.53;;;;;;;;;;5004203;28;20428;-79
2021/05/19 12:15:26;;;;;;;5.63;3.20;;;;;;;;;;5008295;28;20423;-81
2021/05/19 12:17:59;;;;;;;3.50;3.00;;;;;;;;;;5003764;28;20439;-81
2021/05/19 12:20:26;;;;;;;5.40;2.90;;;;;;;;;;5007485;28;20409;-82
2021/05/19 12:22:53;;;;;;;4.13;3.43;;;;;;;;;;5005038;28;20424;-81
2021/05/19 12:25:19;;;;;;;3.57;3.07;;;;;;;;;;5006168;28;20420;-81
2021/05/19 12:27:46;;;;;;;5.60;3.23;;;;;;;;;;5003492;28;20452;-80
2021/05/19 12:30:12;;;;;;;4.07;3.67;;;;;;;;;;5004074;28;20425;-81
2021/05/19 12:32:43;;;;;;;3.57;3.17;;;;;;;;;;5000421;28;20472;-80
2021/05/19 12:35:12;;;;;;;4.23;2.93;;;;;;;;;;5002972;28;20769;-80
2021/05/19 12:37:38;;;;;;;4.00;3.30;;;;;;;;;;4995870;28;20484;-81
2021/05/19 12:40:05;;;;;;;5.63;2.90;;;;;;;;;;5001071;28;20424;-81
2021/05/19 12:42:39;;;;;;;3.60;3.27;;;;;;;;;;4995676;28;20415;-82
2021/05/19 12:45:05;;;;;;;4.33;3.30;;;;;;;;;;4995051;28;20428;-80
2021/05/19 12:47:31;;;;;;;3.63;3.30;;;;;;;;;;4999495;28;20436;-81
2021/05/19 12:50:01;;;;;;;5.00;3.63;;;;;;;;;;5010771;28;20424;-82
2021/05/19 12:52:30;;;;;;;4.23;3.83;;;;;;;;;;5002532;28;20479;-82
2021/05/19 12:54:57;;;;;;;4.10;3.40;;;;;;;;;;4999688;28;20476;-82
2021/05/19 12:57:27;;;;;;;6.63;4.20;;;;;;;;;;4997549;28;20523;-80
2021/05/19 13:00:16;;;;;;;3.73;3.33;;;;;;;;;;4999387;28;20505;-80
2021/05/19 13:02:44;;;;;;;4.07;3.20;;;;;;;;;;4992755;28;20539;-78
2021/05/19 13:05:20;;;;;;;4.90;3.27;;;;;;;;;;4996347;28;20523;-79
2021/05/19 13:07:51;;;;;;;2.80;2.27;;;;;;;;;;5006163;28;20440;-80
2021/05/19 13:10:38;;;;;;;4.53;3.10;;;;;;;;;;5000673;28;20584;-79
2021/05/19 13:15:49;;;;;;;3.40;2.53;;;;;;;;;;4985773;28;20437;-80
2021/05/19 13:18:30;;;;;;;2.40;2.00;;;;;;;;;;4989316;28;20488;-80
2021/05/19 13:21:03;;;;;;;2.80;2.07;;;;;;;;;;4996147;28;20503;-81
2021/05/19 13:23:53;;;;;;;3.10;2.53;;;;;;;;;;4993037;28;20425;-80
2021/05/19 13:26:20;;;;;;;3.87;2.73;;;;;;;;;;4996272;28;20535;-81
2021/05/19 13:28:48;;;;;;;3.50;2.50;;;;;;;;;;4994288;28;20487;-80
2021/05/19 13:31:15;;;;;;;2.23;2.00;;;;;;;;;;4997463;28;20458;-81
2021/05/19 13:36:43;;;;;;;3.53;2.10;;;;;;;;;;4984348;28;20443;-80
2021/05/19 13:39:09;;;;;;;3.10;1.83;;;;;;;;;;4995221;28;20432;-80
2021/05/19 13:41:35;;;;;;;3.80;1.53;;;;;;;;;;4996619;28;20429;-81
2021/05/19 13:44:01;;;;;;;3.37;1.70;;;;;;;;;;5008391;28;20797;-82
2021/05/19 13:46:27;;;;;;;2.83;1.90;;;;;;;;;;4987093;28;20484;-81
2021/05/19 13:48:53;;;;;;;3.33;2.00;;;;;;;;;;4998127;28;20945;-81
2021/05/19 13:51:19;;;;;;;3.47;2.50;;;;;;;;;;5000345;28;20457;-81
2021/05/19 13:53:47;;;;;;;4.17;2.10;;;;;;;;;;4996846;28;20424;-82
2021/05/19 13:56:13;;;;;;;2.83;1.70;;;;;;;;;;4998575;28;20479;-80
2021/05/19 13:58:43;;;;;;;4.10;1.83;;;;;;;;;;4996216;28;20476;-81
2021/05/19 14:01:09;;;;;;;2.27;1.57;;;;;;;;;;4996413;28;20440;-80
2021/05/19 14:03:36;;;;;;;3.50;2.07;;;;;;;;;;4992194;28;20457;-81
2021/05/19 14:06:02;;;;;;;2.50;1.77;;;;;;;;;;5000559;28;20484;-81
2021/05/19 14:08:28;;;;;;;2.70;1.80;;;;;;;;;;4993389;28;20828;-82
2021/05/19 14:11:16;;;;;;;5.37;1.80;;;;;;;;;;4989773;28;20500;-83
2021/05/19 14:27:43;;;;;;;2.63;1.67;;;;;;;;;;5008092;28;20400;-82
2021/05/19 14:30:10;;;;;;;1.90;1.23;;;;;;;;;;5006574;28;20429;-83
2021/05/19 14:32:36;;;;;;;1.90;1.33;;;;;;;;;;4994385;28;20440;-84
2021/05/19 14:35:05;;;;;;;3.20;1.60;;;;;;;;;;4992710;28;20421;-84
2021/05/19 15:01:31;;;;;;;1.80;1.27;;;;;;;;;;4997746;28;20752;-84
2021/05/19 15:03:57;;;;;;;2.00;1.20;;;;;;;;;;4999539;28;20426;-82
2021/05/19 15:06:24;;;;;;;2.43;1.20;;;;;;;;;;5002141;28;20436;-81
2021/05/19 15:08:52;;;;;;;2.37;1.37;;;;;;;;;;4999481;28;20433;-80
2021/05/19 15:11:21;;;;;;;1.93;1.30;;;;;;;;;;5002261;28;20516;-81
2021/05/19 15:13:47;;;;;;;3.33;1.60;;;;;;;;;;5006779;28;20480;-82
2021/05/19 15:16:16;;;;;;;4.67;1.83;;;;;;;;;;5002259;28;20432;-82
2021/05/19 15:18:47;;;;;;;2.00;1.20;;;;;;;;;;5001465;28;20417;-82
2021/05/19 15:21:19;;;;;;;3.20;1.40;;;;;;;;;;4997847;28;20957;-82
2021/05/19 15:23:45;;;;;;;2.13;1.17;;;;;;;;;;5013275;28;20795;-83
2021/05/19 15:26:11;;;;;;;2.23;1.10;;;;;;;;;;4997827;28;20440;-81
2021/05/19 15:28:37;;;;;;;1.80;1.00;;;;;;;;;;4991999;28;20985;-81
2021/05/19 15:31:03;;;;;;;1.97;1.00;;;;;;;;;;4995442;28;20493;-83
2021/05/19 15:33:30;;;;;;;2.93;1.10;;;;;;;;;;5009186;28;20475;-82
2021/05/19 15:36:02;;;;;;;2.53;1.20;;;;;;;;;;5018539;28;20439;-83
2021/05/19 15:38:35;;;;;;;2.50;1.37;;;;;;;;;;4994135;28;20410;-82
2021/05/19 15:41:09;;;;;;;2.20;1.60;;;;;;;;;;4992372;28;20497;-83
2021/05/19 15:43:35;;;;;;;2.57;1.27;;;;;;;;;;4991387;28;20471;-83